createdAt,value
2022-09-25T00:01:08.098Z,100.00
2022-09-25T00:03:36.478Z,100.00
2022-09-25T00:06:05.634Z,100.00
2022-09-25T00:08:34.027Z,100.00
2022-09-25T00:11:02.462Z,100.00
2022-09-25T00:13:32.170Z,100.00
2022-09-25T00:16:03.298Z,100.00
2022-09-25T00:18:45.445Z,100.00
2022-09-25T00:21:14.778Z,100.00
2022-09-25T00:23:43.785Z,100.00
2022-09-25T00:26:13.205Z,100.00
2022-09-25T00:28:43.298Z,100.00
2022-09-25T00:31:11.849Z,100.00
2022-09-25T00:33:40.774Z,100.00
2022-09-25T00:36:10.488Z,100.00
2022-09-25T00:38:39.255Z,100.00
2022-09-25T00:41:08.159Z,100.00
2022-09-25T00:43:55.917Z,100.00
2022-09-25T00:46:26.642Z,100.00
2022-09-25T00:48:56.613Z,100.00
2022-09-25T00:51:29.222Z,100.00
2022-09-25T00:53:58.589Z,100.00
2022-09-25T00:56:26.895Z,100.00
2022-09-25T00:58:55.687Z,100.00
2022-09-25T01:01:25.773Z,100.00
2022-09-25T01:03:56.253Z,100.00
2022-09-25T01:06:25.211Z,100.00
2022-09-25T01:08:53.479Z,100.00
2022-09-25T01:11:22.852Z,100.00
2022-09-25T01:13:51.170Z,100.00
2022-09-25T01:16:21.754Z,100.00
2022-09-25T01:18:59.379Z,100.00
2022-09-25T01:21:32.519Z,100.00
2022-09-25T01:24:20.680Z,100.00
2022-09-25T01:27:00.345Z,100.00
2022-09-25T01:29:31.482Z,100.00
2022-09-25T01:32:03.449Z,100.00
2022-09-25T01:34:36.535Z,100.00
2022-09-25T01:37:07.247Z,100.00
2022-09-25T01:39:37.921Z,100.00
2022-09-25T01:42:08.823Z,100.00
2022-09-25T01:44:38.948Z,100.00
2022-09-25T01:47:09.298Z,100.00
2022-09-25T01:49:38.897Z,100.00
2022-09-25T01:52:09.579Z,100.00
2022-09-25T01:54:40.259Z,100.00
2022-09-25T01:57:11.982Z,100.00
2022-09-25T01:59:44.391Z,100.00
2022-09-25T02:02:15.005Z,100.00
2022-09-25T02:04:44.499Z,100.00
2022-09-25T02:07:14.452Z,100.00
2022-09-25T02:09:44.292Z,100.00
2022-09-25T02:12:14.286Z,100.00
2022-09-25T02:14:46.788Z,100.00
2022-09-25T02:17:36.671Z,100.00
2022-09-25T02:20:19.245Z,100.00
2022-09-25T02:22:47.530Z,100.00
2022-09-25T02:25:18.575Z,100.00
2022-09-25T02:27:46.838Z,100.00
2022-09-25T02:30:17.583Z,100.00
2022-09-25T02:32:45.858Z,100.00
2022-09-25T02:35:14.579Z,100.00
2022-09-25T02:37:42.871Z,100.00
2022-09-25T02:40:12.259Z,100.00
2022-09-25T02:42:45.143Z,100.00
2022-09-25T02:45:21.172Z,100.00
2022-09-25T02:47:57.426Z,100.00
2022-09-25T02:50:27.603Z,100.00
2022-09-25T02:53:02.861Z,100.00
2022-09-25T02:55:35.709Z,100.00
2022-09-25T02:58:06.208Z,100.00
2022-09-25T03:00:36.394Z,100.00
2022-09-25T03:03:06.395Z,100.00
2022-09-25T03:05:34.657Z,100.00
2022-09-25T03:08:16.909Z,100.00
2022-09-25T03:10:46.798Z,100.00
2022-09-25T03:13:16.585Z,100.00
2022-09-25T03:15:47.291Z,100.00
2022-09-25T03:18:15.608Z,100.00
2022-09-25T03:20:52.772Z,100.00
2022-09-25T03:23:21.062Z,100.00
2022-09-25T03:25:50.535Z,100.00
2022-09-25T03:28:18.923Z,100.00
2022-09-25T03:30:57.121Z,100.00
2022-09-25T03:33:25.602Z,100.00
2022-09-25T03:36:02.585Z,100.00
2022-09-25T03:38:30.884Z,100.00
2022-09-25T03:40:59.209Z,100.00
2022-09-25T03:43:27.612Z,100.00
2022-09-25T03:45:57.334Z,100.00
2022-09-25T03:48:25.747Z,100.00
2022-09-25T03:50:56.425Z,100.00
2022-09-25T03:53:24.709Z,100.00
2022-09-25T03:55:52.984Z,100.00
2022-09-25T03:58:23.781Z,100.00
2022-09-25T04:00:52.110Z,100.00
2022-09-25T04:03:22.705Z,100.00
2022-09-25T04:05:51.016Z,100.00
2022-09-25T04:08:19.320Z,100.00
2022-09-25T04:10:48.149Z,100.00
2022-09-25T04:13:17.263Z,100.00
2022-09-25T04:15:47.110Z,100.00
2022-09-25T04:18:15.382Z,100.00
2022-09-25T04:20:45.311Z,100.00
2022-09-25T04:23:16.090Z,100.00
2022-09-25T04:25:44.403Z,100.00
2022-09-25T04:28:12.686Z,100.00
2022-09-25T04:30:41.433Z,100.00
2022-09-25T04:33:24.306Z,100.00
2022-09-25T04:35:54.236Z,100.00
2022-09-25T04:38:22.821Z,100.00
2022-09-25T04:40:51.290Z,100.00
2022-09-25T04:43:19.632Z,100.00
2022-09-25T04:45:48.258Z,100.00
2022-09-25T04:48:16.585Z,100.00
2022-09-25T04:50:49.106Z,100.00
2022-09-25T04:53:18.938Z,100.00
2022-09-25T04:55:48.274Z,100.00
2022-09-25T04:58:16.535Z,100.00
2022-09-25T05:00:45.052Z,100.00
2022-09-25T05:03:13.499Z,100.00
2022-09-25T05:05:41.978Z,100.00
2022-09-25T05:08:11.070Z,100.00
2022-09-25T05:13:28.306Z,100.00
2022-09-25T05:15:57.355Z,100.00
2022-09-25T05:18:25.887Z,100.00
2022-09-25T05:20:54.706Z,100.00
2022-09-25T05:23:24.071Z,100.00
2022-09-25T05:25:55.395Z,100.00
2022-09-25T05:28:24.951Z,100.00
2022-09-25T05:30:53.680Z,100.00
2022-09-25T05:33:22.031Z,100.00
2022-09-25T05:35:50.288Z,100.00
2022-09-25T05:38:19.048Z,100.00
2022-09-25T05:40:47.793Z,100.00
2022-09-25T05:43:17.908Z,100.00
2022-09-25T05:46:04.701Z,100.00
2022-09-25T05:48:33.043Z,100.00
2022-09-25T05:51:01.364Z,100.00
2022-09-25T05:53:34.254Z,100.00
2022-09-25T05:56:09.229Z,100.00
2022-09-25T05:58:59.604Z,100.00
2022-09-25T06:01:31.209Z,100.00
2022-09-25T06:03:59.511Z,100.00
2022-09-25T06:06:27.954Z,100.00
2022-09-25T06:08:56.441Z,100.00
2022-09-25T06:11:25.232Z,100.00
2022-09-25T06:14:13.489Z,100.00
2022-09-25T06:16:41.876Z,100.00
2022-09-25T06:19:10.600Z,100.00
2022-09-25T06:21:38.879Z,100.00
2022-09-25T06:24:07.378Z,100.00
2022-09-25T06:26:35.660Z,100.00
2022-09-25T06:29:04.272Z,100.00
2022-09-25T06:31:34.257Z,100.00
2022-09-25T06:34:03.937Z,100.00
2022-09-25T06:36:32.298Z,100.00
2022-09-25T06:39:00.586Z,100.00
2022-09-25T06:41:29.846Z,100.00
2022-09-25T06:44:15.361Z,100.00
2022-09-25T06:47:03.580Z,100.00
2022-09-25T06:49:48.955Z,100.00
2022-09-25T06:52:17.347Z,100.00
2022-09-25T06:54:45.688Z,100.00
2022-09-25T06:57:13.995Z,100.00
2022-09-25T06:59:42.292Z,100.00
2022-09-25T07:02:26.021Z,100.00
2022-09-25T07:04:54.402Z,100.00
2022-09-25T07:07:24.384Z,100.00
2022-09-25T07:09:52.761Z,100.00
2022-09-25T07:12:22.179Z,100.00
2022-09-25T07:14:50.960Z,100.00
2022-09-25T07:17:20.611Z,100.00
2022-09-25T07:19:52.070Z,100.00
2022-09-25T07:22:20.431Z,100.00
2022-09-25T07:24:48.762Z,100.00
2022-09-25T07:27:17.025Z,100.00
2022-09-25T07:29:45.366Z,100.00
2022-09-25T07:37:47.731Z,100.00
2022-09-25T07:40:16.150Z,100.00
2022-09-25T07:42:44.509Z,100.00
2022-09-25T07:45:13.316Z,100.00
2022-09-25T07:47:41.650Z,100.00
2022-09-25T07:50:15.404Z,100.00
2022-09-25T07:52:44.135Z,100.00
2022-09-25T07:55:12.427Z,100.00
2022-09-25T07:57:42.927Z,100.00
2022-09-25T08:00:12.312Z,100.00
2022-09-25T08:02:41.691Z,100.00
2022-09-25T08:05:14.683Z,100.00
2022-09-25T08:07:43.062Z,100.00
2022-09-25T08:10:11.941Z,100.00
2022-09-25T08:12:49.666Z,100.00
2022-09-25T08:15:18.202Z,100.00
2022-09-25T08:17:46.504Z,100.00
2022-09-25T08:20:16.367Z,100.00
2022-09-25T08:22:44.727Z,100.00
2022-09-25T08:25:13.178Z,100.00
2022-09-25T08:27:42.574Z,100.00
2022-09-25T08:30:13.965Z,100.00
2022-09-25T08:32:42.342Z,100.00
2022-09-25T08:35:11.165Z,100.00
2022-09-25T08:37:43.273Z,100.00
2022-09-25T08:40:18.307Z,100.00
2022-09-25T08:42:47.205Z,100.00
2022-09-25T08:45:39.919Z,100.00
2022-09-25T08:48:22.726Z,100.00
2022-09-25T08:50:53.524Z,100.00
2022-09-25T08:53:25.380Z,100.00
2022-09-25T08:56:07.517Z,100.00
2022-09-25T08:58:43.332Z,100.00
2022-09-25T09:01:15.016Z,100.00
2022-09-25T09:03:46.953Z,100.00
2022-09-25T09:06:17.106Z,100.00
2022-09-25T09:08:49.090Z,100.00
2022-09-25T09:11:19.461Z,100.00
2022-09-25T09:13:49.755Z,100.00
2022-09-25T09:16:21.162Z,100.00
2022-09-25T09:18:49.416Z,100.00
2022-09-25T09:21:22.803Z,100.00
2022-09-25T09:23:55.240Z,100.00
2022-09-25T09:26:26.379Z,100.00
2022-09-25T09:29:07.223Z,100.00
2022-09-25T09:31:41.698Z,100.00
2022-09-25T09:34:52.941Z,100.00
2022-09-25T09:37:22.498Z,100.00
2022-09-25T09:40:12.176Z,100.00
2022-09-25T09:42:44.318Z,100.00
2022-09-25T09:45:33.646Z,100.00
2022-09-25T09:48:06.849Z,100.00
2022-09-25T09:50:43.806Z,100.00
2022-09-25T09:53:19.271Z,100.00
2022-09-25T09:55:50.956Z,100.00
2022-09-25T09:58:21.652Z,100.00
2022-09-25T10:00:50.244Z,100.00
2022-09-25T10:03:20.199Z,100.00
2022-09-25T10:05:49.363Z,100.00
2022-09-25T10:08:18.778Z,100.00
2022-09-25T10:10:51.467Z,100.00
2022-09-25T10:13:21.707Z,100.00
2022-09-25T10:15:52.984Z,100.00
2022-09-25T10:18:22.451Z,100.00
2022-09-25T10:20:52.844Z,100.00
2022-09-25T10:23:35.216Z,100.00
2022-09-25T10:26:07.378Z,100.00
2022-09-25T10:31:40.701Z,100.00
2022-09-25T10:34:21.622Z,100.00
2022-09-25T10:36:51.393Z,100.00
2022-09-25T10:39:45.833Z,100.00
2022-09-25T10:42:36.363Z,100.00
2022-09-25T10:45:18.065Z,100.00
2022-09-25T10:48:05.815Z,100.00
2022-09-25T10:50:34.471Z,100.00
2022-09-25T10:53:04.309Z,100.00
2022-09-25T10:55:34.176Z,100.00
2022-09-25T10:58:10.622Z,100.00
2022-09-25T11:00:43.703Z,100.00
2022-09-25T11:03:21.467Z,100.00
2022-09-25T11:06:10.507Z,100.00
2022-09-25T11:08:41.499Z,100.00
2022-09-25T11:11:10.671Z,100.00
2022-09-25T11:13:46.479Z,100.00
2022-09-25T11:16:14.869Z,100.00
2022-09-25T11:18:45.330Z,100.00
2022-09-25T11:21:21.906Z,100.00
2022-09-25T11:24:14.709Z,100.00
2022-09-25T11:26:44.705Z,100.00
2022-09-25T11:29:17.146Z,100.00
2022-09-25T11:31:47.868Z,100.00
2022-09-25T11:34:21.324Z,100.00
2022-09-25T11:36:50.733Z,100.00
2022-09-25T11:39:37.739Z,100.00
2022-09-25T11:42:08.305Z,100.00
2022-09-25T11:44:40.306Z,100.00
2022-09-25T11:47:13.046Z,100.00
2022-09-25T11:49:41.482Z,100.00
2022-09-25T11:52:29.602Z,100.00
2022-09-25T11:55:33.624Z,100.00
2022-09-25T11:58:09.866Z,100.00
2022-09-25T12:00:45.648Z,100.00
2022-09-25T12:03:25.782Z,100.00
2022-09-25T12:06:06.947Z,100.00
2022-09-25T12:08:58.093Z,100.00
2022-09-25T12:11:30.525Z,100.00
2022-09-25T12:14:03.654Z,100.00
2022-09-25T12:16:52.683Z,100.00
2022-09-25T12:19:29.516Z,100.00
2022-09-25T12:22:01.328Z,100.00
2022-09-25T12:24:37.033Z,100.00
2022-09-25T12:27:09.895Z,100.00
2022-09-25T12:29:46.719Z,100.00
2022-09-25T12:32:22.049Z,100.00
2022-09-25T12:34:58.254Z,100.00
2022-09-25T12:37:32.424Z,100.00
2022-09-25T12:40:19.125Z,100.00
2022-09-25T12:42:52.255Z,100.00
2022-09-25T12:45:23.404Z,100.00
2022-09-25T12:48:01.403Z,98.54
2022-09-25T12:50:36.113Z,100.00
2022-09-25T12:53:07.015Z,100.00
2022-09-25T12:55:38.886Z,100.00
2022-09-25T12:58:28.522Z,100.00
2022-09-25T13:00:59.407Z,100.00
2022-09-25T13:03:37.384Z,100.00
2022-09-25T13:06:26.751Z,100.00
2022-09-25T13:08:58.129Z,100.00
2022-09-25T13:11:36.206Z,100.00
2022-09-25T13:14:22.035Z,100.00
2022-09-25T13:16:50.358Z,100.00
2022-09-25T13:22:14.363Z,100.00
2022-09-25T13:24:50.496Z,100.00
2022-09-25T13:30:20.581Z,100.00
2022-09-25T13:32:49.514Z,100.00
2022-09-25T13:35:37.634Z,100.00
2022-09-25T13:38:11.816Z,100.00
2022-09-25T13:40:42.899Z,100.00
2022-09-25T13:43:20.973Z,95.66
2022-09-25T13:45:50.461Z,94.43
2022-09-25T13:48:35.756Z,93.84
2022-09-25T13:51:34.847Z,95.18
2022-09-25T13:54:05.117Z,95.97
2022-09-25T13:56:48.616Z,98.81
2022-09-25T13:59:36.406Z,95.54
2022-09-25T14:02:34.280Z,96.29
2022-09-25T14:05:02.631Z,92.88
2022-09-25T14:07:32.302Z,88.40
2022-09-25T14:10:02.103Z,90.84
2022-09-25T14:12:39.286Z,90.42
2022-09-25T14:15:09.372Z,93.94
2022-09-25T14:17:38.497Z,97.35
2022-09-25T14:20:11.306Z,98.99
2022-09-25T14:22:46.640Z,100.00
2022-09-25T14:25:28.529Z,100.00
2022-09-25T14:27:57.053Z,100.00
2022-09-25T14:30:29.354Z,100.00
2022-09-25T14:33:06.863Z,100.00
2022-09-25T14:35:38.825Z,100.00
2022-09-25T14:38:36.038Z,100.00
2022-09-25T14:41:18.908Z,100.00
2022-09-25T14:43:55.435Z,97.75
2022-09-25T14:46:23.894Z,95.12
2022-09-25T14:48:54.479Z,97.40
2022-09-25T14:51:25.821Z,91.68
2022-09-25T14:56:42.949Z,99.20
2022-09-25T14:59:28.107Z,92.97
2022-09-25T15:01:56.542Z,89.43
2022-09-25T15:04:28.303Z,86.80
2022-09-25T15:07:01.579Z,83.28
2022-09-25T15:09:32.570Z,79.52
2022-09-25T15:12:01.276Z,77.46
2022-09-25T15:14:29.563Z,76.69
2022-09-25T15:17:11.617Z,73.75
2022-09-25T15:19:42.737Z,73.01
2022-09-25T15:22:11.741Z,73.18
2022-09-25T15:24:41.739Z,73.39
2022-09-25T15:27:13.606Z,74.78
2022-09-25T15:29:44.148Z,78.57
2022-09-25T15:32:17.792Z,76.09
2022-09-25T15:34:46.136Z,82.18
2022-09-25T15:37:23.772Z,80.56
2022-09-25T15:39:53.581Z,86.97
2022-09-25T15:42:22.283Z,89.08
2022-09-25T15:44:50.979Z,89.58
2022-09-25T15:47:50.831Z,88.61
2022-09-25T15:50:23.351Z,89.08
2022-09-25T15:53:10.000Z,90.26
2022-09-25T15:55:40.613Z,90.81
2022-09-25T15:58:15.767Z,92.30
2022-09-25T16:01:13.337Z,94.10
2022-09-25T16:03:57.498Z,95.40
2022-09-25T16:06:26.415Z,96.73
2022-09-25T16:09:09.175Z,96.62
2022-09-25T16:11:39.016Z,96.59
2022-09-25T16:14:22.196Z,95.93
2022-09-25T16:16:53.978Z,96.75
2022-09-25T16:19:30.304Z,98.18
2022-09-25T16:22:03.562Z,97.91
2022-09-25T16:24:32.294Z,98.13
2022-09-25T16:27:02.681Z,100.00
2022-09-25T16:29:31.708Z,100.00
2022-09-25T16:32:02.435Z,100.00
2022-09-25T16:34:32.129Z,100.00
2022-09-25T16:37:03.138Z,100.00
2022-09-25T16:39:33.315Z,100.00
2022-09-25T16:42:04.637Z,100.00
2022-09-25T16:44:47.277Z,100.00
2022-09-25T16:47:18.065Z,100.00
2022-09-25T16:49:46.401Z,100.00
2022-09-25T16:52:20.782Z,100.00
2022-09-25T16:54:53.910Z,100.00
2022-09-25T16:57:45.945Z,100.00
2022-09-25T17:00:16.976Z,100.00
2022-09-25T17:02:45.913Z,100.00
2022-09-25T17:05:18.113Z,100.00
2022-09-25T17:07:48.365Z,100.00
2022-09-25T17:10:17.352Z,100.00
2022-09-25T17:12:53.318Z,100.00
2022-09-25T17:15:24.039Z,100.00
2022-09-25T17:17:55.849Z,100.00
2022-09-25T17:20:26.426Z,100.00
2022-09-25T17:22:55.697Z,100.00
2022-09-25T17:25:31.986Z,100.00
2022-09-25T17:28:01.651Z,100.00
2022-09-25T17:30:30.479Z,100.00
2022-09-25T17:32:59.039Z,100.00
2022-09-25T17:35:32.589Z,100.00
2022-09-25T17:38:02.582Z,100.00
2022-09-25T17:40:31.204Z,100.00
2022-09-25T17:42:59.522Z,100.00
2022-09-25T17:45:33.217Z,100.00
2022-09-25T17:48:18.766Z,100.00
2022-09-25T17:50:47.067Z,100.00
2022-09-25T17:53:17.775Z,100.00
2022-09-25T17:55:51.201Z,100.00
2022-09-25T17:58:40.702Z,100.00
2022-09-25T18:01:14.109Z,100.00
2022-09-25T18:03:42.492Z,100.00
2022-09-25T18:06:10.790Z,100.00
2022-09-25T18:08:58.926Z,100.00
2022-09-25T18:11:27.408Z,100.00
2022-09-25T18:13:57.605Z,100.00
2022-09-25T18:16:52.402Z,100.00
2022-09-25T18:19:55.274Z,100.00
2022-09-25T18:22:25.743Z,100.00
2022-09-25T18:24:57.095Z,100.00
2022-09-25T18:27:25.826Z,100.00
2022-09-25T18:29:54.085Z,100.00
2022-09-25T18:32:25.266Z,100.00
2022-09-25T18:34:53.822Z,100.00
2022-09-25T18:37:22.253Z,100.00
2022-09-25T18:39:51.043Z,100.00
2022-09-25T18:42:19.351Z,100.00
2022-09-25T18:44:47.854Z,100.00
2022-09-25T18:47:16.453Z,100.00
2022-09-25T18:49:46.196Z,100.00
2022-09-25T18:52:14.735Z,100.00
2022-09-25T18:54:43.080Z,100.00
2022-09-25T18:57:12.479Z,100.00
2022-09-25T18:59:40.806Z,100.00
2022-09-25T19:02:17.680Z,100.00
2022-09-25T19:04:48.008Z,100.00
2022-09-25T19:07:17.046Z,100.00
2022-09-25T19:09:45.328Z,100.00
2022-09-25T19:12:17.223Z,100.00
2022-09-25T19:14:45.570Z,100.00
2022-09-25T19:17:16.420Z,100.00
2022-09-25T19:19:44.744Z,100.00
2022-09-25T19:22:16.113Z,100.00
2022-09-25T19:24:46.370Z,100.00
2022-09-25T19:27:15.732Z,100.00
2022-09-25T19:29:44.178Z,100.00
2022-09-25T19:32:13.591Z,100.00
2022-09-25T19:34:42.053Z,100.00
2022-09-25T19:37:11.168Z,100.00
2022-09-25T19:39:55.269Z,100.00
2022-09-25T19:42:23.938Z,100.00
2022-09-25T19:44:54.283Z,100.00
2022-09-25T19:47:22.775Z,100.00
2022-09-25T19:50:08.920Z,100.00
2022-09-25T19:52:38.386Z,100.00
2022-09-25T19:55:08.880Z,100.00
2022-09-25T19:57:37.377Z,100.00
2022-09-25T20:00:06.433Z,100.00
2022-09-25T20:02:34.891Z,100.00
2022-09-25T20:05:03.331Z,100.00
2022-09-25T20:07:31.677Z,100.00
2022-09-25T20:10:00.369Z,100.00
2022-09-25T20:12:30.126Z,100.00
2022-09-25T20:14:58.489Z,100.00
2022-09-25T20:17:27.350Z,100.00
2022-09-25T20:19:55.924Z,100.00
2022-09-25T20:22:24.263Z,100.00
2022-09-25T20:24:52.763Z,100.00
2022-09-25T20:27:26.064Z,100.00
2022-09-25T20:29:55.906Z,100.00
2022-09-25T20:32:24.190Z,100.00
2022-09-25T20:34:53.153Z,100.00
2022-09-25T20:37:21.455Z,100.00
2022-09-25T20:40:19.440Z,100.00
2022-09-25T20:42:48.423Z,100.00
2022-09-25T20:45:19.041Z,100.00
2022-09-25T20:47:48.165Z,100.00
2022-09-25T20:50:17.335Z,100.00
2022-09-25T20:52:46.363Z,100.00
2022-09-25T20:55:19.060Z,100.00
2022-09-25T20:57:47.385Z,100.00
2022-09-25T21:00:19.403Z,100.00
2022-09-25T21:02:50.083Z,100.00
2022-09-25T21:05:18.460Z,100.00
2022-09-25T21:07:46.819Z,100.00
2022-09-25T21:10:17.020Z,100.00
2022-09-25T21:12:45.751Z,100.00
2022-09-25T21:15:14.039Z,100.00
2022-09-25T21:17:43.898Z,100.00
2022-09-25T21:20:12.774Z,100.00
2022-09-25T21:22:41.304Z,100.00
2022-09-25T21:25:10.323Z,100.00
2022-09-25T21:27:38.937Z,100.00
2022-09-25T21:30:07.974Z,100.00
2022-09-25T21:32:36.297Z,100.00
2022-09-25T21:35:06.164Z,100.00
2022-09-25T21:37:35.911Z,100.00
2022-09-25T21:40:05.641Z,100.00
2022-09-25T21:42:34.119Z,100.00
2022-09-25T21:47:50.888Z,100.00
2022-09-25T21:50:20.560Z,100.00
2022-09-25T21:52:48.839Z,100.00
2022-09-25T21:55:17.378Z,100.00
2022-09-25T21:57:46.083Z,100.00
2022-09-25T22:00:16.925Z,100.00
2022-09-25T22:02:45.359Z,100.00
2022-09-25T22:05:15.890Z,100.00
2022-09-25T22:07:46.660Z,100.00
2022-09-25T22:10:14.946Z,100.00
2022-09-25T22:12:43.313Z,100.00
2022-09-25T22:15:12.215Z,100.00
2022-09-25T22:17:40.511Z,100.00
2022-09-25T22:20:11.380Z,100.00
2022-09-25T22:22:40.121Z,100.00
2022-09-25T22:25:10.312Z,100.00
2022-09-25T22:27:41.498Z,100.00
2022-09-25T22:30:15.498Z,100.00
2022-09-25T22:32:46.364Z,100.00
2022-09-25T23:05:43.007Z,100.00
2022-09-25T23:35:41.503Z,100.00
2022-09-25T23:38:51.779Z,100.00
2022-09-25T23:41:21.064Z,100.00
2022-09-25T23:44:33.057Z,100.00
2022-09-25T23:51:35.918Z,100.00
2022-09-25T23:54:05.699Z,100.00
2022-09-25T23:56:34.807Z,100.00
2022-09-25T23:59:27.121Z,100.00
